createdAt,value
2023-01-04T00:01:42.283Z,7.20
2023-01-04T00:04:15.045Z,6.75
2023-01-04T00:06:47.545Z,5.95
2023-01-04T00:09:20.420Z,4.88
2023-01-04T00:11:52.856Z,6.72
2023-01-04T00:14:25.981Z,6.07
2023-01-04T00:16:58.496Z,7.70
2023-01-04T00:19:31.384Z,7.05
2023-01-04T00:22:03.890Z,6.65
2023-01-04T00:24:36.701Z,7.45
2023-01-04T00:27:09.213Z,6.35
2023-01-04T00:29:42.022Z,7.13
2023-01-04T00:32:14.506Z,6.93
2023-01-04T00:34:47.283Z,6.95
2023-01-04T00:37:19.754Z,7.47
2023-01-04T00:39:52.509Z,8.48
2023-01-04T00:42:24.999Z,6.50
2023-01-04T00:44:57.792Z,6.45
2023-01-04T00:47:30.334Z,7.30
2023-01-04T00:50:03.970Z,8.15
2023-01-04T00:52:36.545Z,7.85
2023-01-04T00:55:09.851Z,7.68
2023-01-04T00:57:42.318Z,7.35
2023-01-04T01:00:16.125Z,7.38
2023-01-04T01:02:48.768Z,8.73
2023-01-04T01:05:21.671Z,7.10
2023-01-04T01:07:54.151Z,8.13
2023-01-04T01:10:26.871Z,9.50
2023-01-04T01:12:59.348Z,9.75
2023-01-04T01:15:34.590Z,8.93
2023-01-04T01:18:07.080Z,9.63
2023-01-04T01:20:44.483Z,9.80
2023-01-04T01:23:16.997Z,9.20
2023-01-04T01:25:49.714Z,8.93
2023-01-04T01:28:22.147Z,8.55
2023-01-04T01:30:55.225Z,10.77
2023-01-04T01:33:27.755Z,8.30
2023-01-04T01:36:02.177Z,8.82
2023-01-04T01:38:35.249Z,9.20
2023-01-04T01:41:14.116Z,8.00
2023-01-04T01:43:54.528Z,8.50
2023-01-04T01:46:42.874Z,8.32
2023-01-04T01:52:43.379Z,6.85
2023-01-04T01:55:17.550Z,6.85
2023-01-04T01:57:53.476Z,6.50
2023-01-04T02:00:26.761Z,7.00
2023-01-04T02:03:19.184Z,6.97
2023-01-04T02:05:55.278Z,6.47
2023-01-04T02:08:28.109Z,6.68
2023-01-04T02:11:00.868Z,6.55
2023-01-04T02:13:55.407Z,7.88
2023-01-04T02:16:49.100Z,6.47
2023-01-04T02:19:43.049Z,6.45
2023-01-04T02:22:15.728Z,7.40
2023-01-04T02:25:03.007Z,7.30
2023-01-04T02:27:55.982Z,6.22
2023-01-04T02:30:52.242Z,7.20
2023-01-04T02:33:57.106Z,7.65
2023-01-04T02:37:00.396Z,7.43
2023-01-04T02:39:48.957Z,8.07
2023-01-04T02:43:13.970Z,7.00
2023-01-04T02:46:02.522Z,7.53
2023-01-04T02:48:58.464Z,7.45
2023-01-04T02:51:34.587Z,7.45
2023-01-04T02:54:10.776Z,8.27
2023-01-04T02:57:05.646Z,8.02
2023-01-04T02:59:58.771Z,8.40
2023-01-04T03:03:02.122Z,8.05
2023-01-04T03:06:14.621Z,7.25
2023-01-04T03:09:08.226Z,8.38
2023-01-04T03:12:25.761Z,8.35
2023-01-04T03:15:04.766Z,7.65
2023-01-04T03:17:43.004Z,7.38
2023-01-04T03:20:17.854Z,7.35
2023-01-04T03:23:23.344Z,7.35
2023-01-04T03:26:30.102Z,7.60
2023-01-04T03:29:37.536Z,7.65
2023-01-04T03:32:39.424Z,8.23
2023-01-04T03:35:24.267Z,7.38
2023-01-04T03:38:24.004Z,7.90
2023-01-04T03:41:36.586Z,8.80
2023-01-04T03:44:48.321Z,8.18
2023-01-04T03:47:50.160Z,8.55
2023-01-04T03:50:28.481Z,8.57
2023-01-04T03:53:02.506Z,9.75
2023-01-04T03:55:37.949Z,9.15
2023-01-04T03:58:11.462Z,10.45
2023-01-04T04:00:46.357Z,9.43
2023-01-04T04:03:18.908Z,8.73
2023-01-04T04:06:10.359Z,8.43
2023-01-04T04:08:42.844Z,8.90
2023-01-04T04:11:30.665Z,8.98
2023-01-04T04:14:03.265Z,8.55
2023-01-04T04:16:36.084Z,9.48
2023-01-04T04:19:09.238Z,8.60
2023-01-04T04:21:42.627Z,8.98
2023-01-04T04:24:24.658Z,9.32
2023-01-04T04:26:57.512Z,8.88
2023-01-04T04:29:30.030Z,9.38
2023-01-04T04:32:02.947Z,10.35
2023-01-04T04:34:36.633Z,10.88
2023-01-04T04:37:09.579Z,9.70
2023-01-04T04:39:42.084Z,8.60
2023-01-04T04:42:14.787Z,10.70
2023-01-04T04:44:47.255Z,10.10
2023-01-04T04:47:19.979Z,9.68
2023-01-04T04:49:52.437Z,10.23
2023-01-04T04:52:25.171Z,9.43
2023-01-04T04:54:57.628Z,9.32
2023-01-04T04:57:30.390Z,11.15
2023-01-04T05:00:02.977Z,10.13
2023-01-04T05:02:35.885Z,10.00
2023-01-04T05:05:08.867Z,10.70
2023-01-04T05:07:41.948Z,11.48
2023-01-04T05:10:14.481Z,11.43
2023-01-04T05:12:59.654Z,10.88
2023-01-04T05:15:38.873Z,11.60
2023-01-04T05:18:13.676Z,12.02
2023-01-04T05:20:46.994Z,11.95
2023-01-04T05:23:21.729Z,14.25
2023-01-04T05:25:57.708Z,12.70
2023-01-04T05:28:31.328Z,11.70
2023-01-04T05:31:03.824Z,12.93
2023-01-04T05:33:36.752Z,12.15
2023-01-04T05:36:09.347Z,11.85
2023-01-04T05:38:42.171Z,12.88
2023-01-04T05:41:33.077Z,11.93
2023-01-04T05:44:05.932Z,12.27
2023-01-04T05:46:38.447Z,11.80
2023-01-04T05:49:11.313Z,11.63
2023-01-04T05:51:43.784Z,11.85
2023-01-04T05:54:21.130Z,10.80
2023-01-04T05:56:54.047Z,13.63
2023-01-04T05:59:26.793Z,13.30
2023-01-04T06:01:59.475Z,12.02
2023-01-04T06:04:32.535Z,13.35
2023-01-04T06:07:05.041Z,15.38
2023-01-04T06:09:37.817Z,14.80
2023-01-04T06:12:10.779Z,14.90
2023-01-04T06:14:43.574Z,14.63
2023-01-04T06:17:16.141Z,13.52
2023-01-04T06:19:49.013Z,13.75
2023-01-04T06:22:21.771Z,14.27
2023-01-04T06:24:54.567Z,15.38
2023-01-04T06:27:27.241Z,14.90
2023-01-04T06:30:00.060Z,16.05
2023-01-04T06:32:32.621Z,17.27
2023-01-04T06:35:06.516Z,15.23
2023-01-04T06:37:39.001Z,16.13
2023-01-04T06:40:11.939Z,16.30
2023-01-04T06:42:47.451Z,14.88
2023-01-04T06:45:20.369Z,16.75
2023-01-04T06:47:52.897Z,15.40
2023-01-04T06:50:25.688Z,15.98
2023-01-04T06:53:00.978Z,15.13
2023-01-04T06:55:34.082Z,15.85
2023-01-04T06:58:06.556Z,16.15
2023-01-04T07:00:40.071Z,15.88
2023-01-04T07:03:15.920Z,15.63
2023-01-04T07:05:49.220Z,16.40
2023-01-04T07:08:21.880Z,15.63
2023-01-04T07:10:54.645Z,15.40
2023-01-04T07:13:27.212Z,15.82
2023-01-04T07:16:00.351Z,15.90
2023-01-04T07:18:32.901Z,14.77
2023-01-04T07:21:06.233Z,15.60
2023-01-04T07:23:38.733Z,16.38
2023-01-04T07:26:11.585Z,16.08
2023-01-04T07:29:02.535Z,15.85
2023-01-04T07:31:35.380Z,16.45
2023-01-04T07:34:07.989Z,15.65
2023-01-04T07:36:41.225Z,15.95
2023-01-04T07:39:13.835Z,17.02
2023-01-04T07:41:47.386Z,17.30
2023-01-04T07:44:21.587Z,17.08
2023-01-04T07:46:55.139Z,17.25
2023-01-04T07:49:27.814Z,18.58
2023-01-04T07:52:00.600Z,15.30
2023-01-04T07:54:33.154Z,16.17
2023-01-04T07:57:05.969Z,16.83
2023-01-04T07:59:38.582Z,17.77
2023-01-04T08:02:12.763Z,17.15
2023-01-04T08:04:45.467Z,18.20
2023-01-04T08:07:18.330Z,17.70
2023-01-04T08:09:50.792Z,19.73
2023-01-04T08:12:23.591Z,18.88
2023-01-04T08:14:56.078Z,18.48
2023-01-04T08:17:28.859Z,19.02
2023-01-04T08:20:01.713Z,21.30
2023-01-04T08:22:34.616Z,18.90
2023-01-04T08:25:07.489Z,20.15
2023-01-04T08:27:41.943Z,19.52
2023-01-04T08:30:14.471Z,20.10
2023-01-04T08:32:47.330Z,21.25
2023-01-04T08:35:20.941Z,21.60
2023-01-04T08:37:53.727Z,21.83
2023-01-04T08:40:59.604Z,21.98
2023-01-04T08:43:26.190Z,24.75
2023-01-04T08:46:02.292Z,25.45
2023-01-04T08:48:37.299Z,24.90
2023-01-04T08:51:14.334Z,24.98
2023-01-04T08:53:47.457Z,23.65
2023-01-04T08:56:20.015Z,25.30
2023-01-04T08:58:53.066Z,25.20
2023-01-04T09:01:25.679Z,25.13
2023-01-04T09:03:59.089Z,23.83
2023-01-04T09:06:36.470Z,22.83
2023-01-04T09:09:15.661Z,25.88
2023-01-04T09:11:48.340Z,24.90
2023-01-04T09:14:23.691Z,25.27
2023-01-04T09:16:56.302Z,23.98
2023-01-04T09:19:32.058Z,25.02
2023-01-04T09:22:04.684Z,24.05
2023-01-04T09:24:37.810Z,24.38
2023-01-04T09:27:10.269Z,24.85
2023-01-04T09:29:43.598Z,24.75
2023-01-04T09:32:18.650Z,23.98
2023-01-04T09:34:51.394Z,22.58
2023-01-04T09:37:23.886Z,23.08
2023-01-04T09:39:56.673Z,23.65
2023-01-04T09:42:41.496Z,23.70
2023-01-04T09:45:26.900Z,21.98
2023-01-04T09:48:11.219Z,22.15
2023-01-04T09:51:00.838Z,19.80
2023-01-04T09:53:43.448Z,22.38
2023-01-04T09:56:25.723Z,21.38
2023-01-04T09:59:00.361Z,19.65
2023-01-04T10:05:05.522Z,20.85
2023-01-04T10:07:38.334Z,19.60
2023-01-04T10:10:21.140Z,19.25
2023-01-04T10:13:15.048Z,19.83
2023-01-04T10:16:01.025Z,19.60
2023-01-04T10:21:56.005Z,17.30
2023-01-04T10:24:34.645Z,17.63
2023-01-04T10:27:27.249Z,16.63
2023-01-04T10:30:28.474Z,15.48
2023-01-04T10:33:53.624Z,15.80
2023-01-04T10:36:48.335Z,14.30
2023-01-04T10:39:32.520Z,16.70
2023-01-04T10:42:17.216Z,15.27
2023-01-04T10:45:19.953Z,15.10
2023-01-04T10:48:07.106Z,14.50
2023-01-04T10:50:54.387Z,16.05
2023-01-04T10:53:54.522Z,15.13
2023-01-04T10:56:35.324Z,13.68
2023-01-04T10:59:55.195Z,14.85
2023-01-04T11:02:34.155Z,13.43
2023-01-04T11:05:25.753Z,13.60
2023-01-04T11:08:30.307Z,12.55
2023-01-04T11:11:15.354Z,13.02
2023-01-04T11:13:49.679Z,12.57
2023-01-04T11:16:22.660Z,12.27
2023-01-04T11:18:55.251Z,13.77
2023-01-04T11:21:32.595Z,13.07
2023-01-04T11:24:31.052Z,12.02
2023-01-04T11:27:06.972Z,12.15
2023-01-04T11:29:54.617Z,12.77
2023-01-04T11:32:30.019Z,12.18
2023-01-04T11:35:02.625Z,12.48
2023-01-04T11:37:40.501Z,12.05
2023-01-04T11:40:23.855Z,11.70
2023-01-04T11:43:19.662Z,12.70
2023-01-04T11:45:58.238Z,12.32
2023-01-04T11:48:37.501Z,12.48
2023-01-04T11:51:25.453Z,11.80
2023-01-04T11:54:07.268Z,12.88
2023-01-04T11:56:40.708Z,12.48
2023-01-04T11:59:24.900Z,11.70
2023-01-04T12:05:28.132Z,13.70
2023-01-04T12:08:02.735Z,12.13
2023-01-04T12:10:35.484Z,11.73
2023-01-04T12:13:10.573Z,13.15
2023-01-04T12:15:55.366Z,11.60
2023-01-04T12:18:33.207Z,12.00
2023-01-04T12:21:06.059Z,12.82
2023-01-04T12:23:38.743Z,12.32
2023-01-04T12:26:33.668Z,12.15
2023-01-04T12:29:23.409Z,11.63
2023-01-04T12:32:05.091Z,11.45
2023-01-04T12:34:37.582Z,12.52
2023-01-04T12:37:31.452Z,11.07
2023-01-04T12:40:24.617Z,10.70
2023-01-04T12:43:15.707Z,10.77
2023-01-04T12:46:08.536Z,10.30
2023-01-04T12:49:00.122Z,9.93
2023-01-04T12:51:33.854Z,10.63
2023-01-04T12:54:24.384Z,10.38
2023-01-04T12:57:18.626Z,9.98
2023-01-04T13:00:04.174Z,9.85
2023-01-04T13:02:44.380Z,10.77
2023-01-04T13:08:13.775Z,9.63
2023-01-04T13:10:52.223Z,9.65
2023-01-04T13:13:27.803Z,10.20
2023-01-04T13:16:19.641Z,9.82
2023-01-04T13:19:01.818Z,9.00
2023-01-04T13:21:47.082Z,9.80
2023-01-04T13:24:36.703Z,9.95
2023-01-04T13:27:15.749Z,9.73
2023-01-04T13:29:49.658Z,10.02
2023-01-04T13:32:22.676Z,9.43
2023-01-04T13:34:59.801Z,9.55
2023-01-04T13:37:46.394Z,9.57
2023-01-04T13:40:32.930Z,8.63
2023-01-04T13:43:47.508Z,8.05
2023-01-04T13:46:25.543Z,8.15
2023-01-04T13:49:01.802Z,7.97
2023-01-04T13:52:46.237Z,8.93
2023-01-04T13:55:24.747Z,8.48
2023-01-04T13:58:15.578Z,7.38
2023-01-04T14:01:02.488Z,8.68
2023-01-04T14:03:37.383Z,9.05
2023-01-04T14:06:10.250Z,7.75
2023-01-04T14:09:01.055Z,8.23
2023-01-04T14:12:06.359Z,7.97
2023-01-04T14:14:55.448Z,8.55
2023-01-04T14:17:36.203Z,7.88
2023-01-04T14:20:11.207Z,7.93
2023-01-04T14:22:46.973Z,8.48
2023-01-04T14:25:34.058Z,7.85
2023-01-04T14:28:19.572Z,8.05
2023-01-04T14:31:15.048Z,9.65
2023-01-04T14:33:50.793Z,8.13
2023-01-04T14:36:32.590Z,7.82
2023-01-04T14:39:06.470Z,8.35
2023-01-04T14:41:58.317Z,7.28
2023-01-04T14:44:33.716Z,8.63
2023-01-04T14:47:07.491Z,8.35
2023-01-04T14:49:40.858Z,7.78
2023-01-04T14:52:23.423Z,7.65
2023-01-04T14:54:56.242Z,7.82
2023-01-04T14:57:28.786Z,7.30
2023-01-04T15:00:03.878Z,7.13
2023-01-04T15:02:36.666Z,6.75
2023-01-04T15:05:10.130Z,7.03
2023-01-04T15:07:43.061Z,7.82
2023-01-04T15:10:27.330Z,7.95
2023-01-04T15:13:06.545Z,6.93
2023-01-04T15:15:39.535Z,6.95
2023-01-04T15:18:12.147Z,7.63
2023-01-04T15:20:48.107Z,7.07
2023-01-04T15:23:20.668Z,6.65
2023-01-04T15:25:53.524Z,7.72
2023-01-04T15:28:27.065Z,7.45
2023-01-04T15:31:00.062Z,7.18
2023-01-04T15:33:32.679Z,6.40
2023-01-04T15:36:08.557Z,7.25
2023-01-04T15:38:41.277Z,6.95
2023-01-04T15:41:35.730Z,7.13
2023-01-04T15:44:11.502Z,7.97
2023-01-04T15:46:44.517Z,6.88
2023-01-04T15:49:18.023Z,7.03
2023-01-04T15:51:51.434Z,8.00
2023-01-04T15:54:28.056Z,6.95
2023-01-04T15:57:00.880Z,7.80
2023-01-04T15:59:33.453Z,7.25
2023-01-04T16:02:07.107Z,7.38
2023-01-04T16:04:39.791Z,7.75
2023-01-04T16:07:13.103Z,8.95
2023-01-04T16:09:45.738Z,8.00
2023-01-04T16:12:37.058Z,7.50
2023-01-04T16:15:18.385Z,8.00
2023-01-04T16:17:51.321Z,8.23
2023-01-04T16:20:24.279Z,8.13
2023-01-04T16:22:57.169Z,8.45
2023-01-04T16:25:29.710Z,9.25
2023-01-04T16:28:02.500Z,8.70
2023-01-04T16:30:35.365Z,8.38
2023-01-04T16:33:08.111Z,8.57
2023-01-04T16:35:40.624Z,9.32
2023-01-04T16:38:13.405Z,9.25
2023-01-04T16:40:55.388Z,10.27
2023-01-04T16:43:29.458Z,8.88
2023-01-04T16:46:11.010Z,9.18
2023-01-04T16:48:45.083Z,11.80
2023-01-04T16:51:18.107Z,10.57
2023-01-04T16:53:51.544Z,10.68
2023-01-04T16:56:25.371Z,11.20
2023-01-04T16:58:58.186Z,11.15
2023-01-04T17:01:38.329Z,10.10
2023-01-04T17:04:13.621Z,11.48
2023-01-04T17:06:47.273Z,11.57
2023-01-04T17:09:22.193Z,12.45
2023-01-04T17:15:15.180Z,12.20
2023-01-04T17:17:43.810Z,12.45
2023-01-04T17:20:16.746Z,13.65
2023-01-04T17:22:50.085Z,11.18
2023-01-04T17:25:22.863Z,12.38
2023-01-04T17:27:55.413Z,11.13
2023-01-04T17:30:28.491Z,11.77
2023-01-04T17:33:01.142Z,12.63
2023-01-04T17:35:37.960Z,10.15
2023-01-04T17:38:10.708Z,12.38
2023-01-04T17:40:43.596Z,11.52
2023-01-04T17:43:16.178Z,11.57
2023-01-04T17:45:49.018Z,12.82
2023-01-04T17:48:21.559Z,11.90
2023-01-04T17:50:54.400Z,11.50
2023-01-04T17:53:27.499Z,11.40
2023-01-04T17:56:18.814Z,11.88
2023-01-04T17:58:51.797Z,10.10
2023-01-04T18:01:26.554Z,11.35
2023-01-04T18:04:11.504Z,9.98
2023-01-04T18:06:44.321Z,9.60
2023-01-04T18:09:20.224Z,9.43
2023-01-04T18:11:55.223Z,10.45
2023-01-04T18:14:27.987Z,9.82
2023-01-04T18:17:00.930Z,9.65
2023-01-04T18:19:33.526Z,8.05
2023-01-04T18:22:06.543Z,9.27
2023-01-04T18:24:39.617Z,8.55
2023-01-04T18:27:23.057Z,7.90
2023-01-04T18:29:56.735Z,9.32
2023-01-04T18:32:29.564Z,8.57
2023-01-04T18:35:05.248Z,8.38
2023-01-04T18:37:38.031Z,7.25
2023-01-04T18:40:10.893Z,6.97
2023-01-04T18:42:50.256Z,7.97
2023-01-04T18:45:22.831Z,8.05
2023-01-04T18:47:55.628Z,7.15
2023-01-04T18:50:28.176Z,7.13
2023-01-04T18:53:01.129Z,7.75
2023-01-04T18:55:33.671Z,5.97
2023-01-04T18:58:06.620Z,7.90
2023-01-04T19:00:39.155Z,7.20
2023-01-04T19:03:18.026Z,7.13
2023-01-04T19:05:50.986Z,6.90
2023-01-04T19:08:24.289Z,6.47
2023-01-04T19:10:56.823Z,7.15
2023-01-04T19:13:30.534Z,7.13
2023-01-04T19:16:03.026Z,6.55
2023-01-04T19:18:35.946Z,6.10
2023-01-04T19:21:08.881Z,6.40
2023-01-04T19:23:41.664Z,7.10
2023-01-04T19:26:14.289Z,6.47
2023-01-04T19:28:47.778Z,7.30
2023-01-04T19:31:22.120Z,6.75
2023-01-04T19:33:55.036Z,5.70
2023-01-04T19:36:27.977Z,6.00
2023-01-04T19:39:04.159Z,5.43
2023-01-04T19:41:38.183Z,4.65
2023-01-04T19:44:12.525Z,6.95
2023-01-04T19:46:45.267Z,6.43
2023-01-04T19:49:20.234Z,7.03
2023-01-04T19:51:55.326Z,7.40
2023-01-04T19:54:29.398Z,8.10
2023-01-04T19:57:05.121Z,8.07
2023-01-04T19:59:38.327Z,8.57
2023-01-04T20:02:12.479Z,8.52
2023-01-04T20:04:47.893Z,8.55
2023-01-04T20:07:20.575Z,8.85
2023-01-04T20:09:54.128Z,7.60
2023-01-04T20:12:26.762Z,8.48
2023-01-04T20:14:59.520Z,7.68
2023-01-04T20:17:32.050Z,8.20
2023-01-04T20:20:05.438Z,7.78
2023-01-04T20:22:37.980Z,8.27
2023-01-04T20:25:10.966Z,7.78
2023-01-04T20:27:46.729Z,7.20
2023-01-04T20:30:20.724Z,8.02
2023-01-04T20:32:53.266Z,8.25
2023-01-04T20:35:26.308Z,7.70
2023-01-04T20:37:59.188Z,7.85
2023-01-04T20:40:32.003Z,8.35
2023-01-04T20:43:23.693Z,6.72
2023-01-04T20:45:56.446Z,8.00
2023-01-04T20:48:29.410Z,7.65
2023-01-04T20:51:10.827Z,7.55
2023-01-04T20:53:43.777Z,5.97
2023-01-04T20:56:19.586Z,6.38
2023-01-04T20:58:52.624Z,7.63
2023-01-04T21:01:25.738Z,7.80
2023-01-04T21:03:58.362Z,7.53
2023-01-04T21:06:33.337Z,7.03
2023-01-04T21:09:05.802Z,7.38
2023-01-04T21:11:38.582Z,6.97
2023-01-04T21:14:12.120Z,7.55
2023-01-04T21:16:45.415Z,6.15
2023-01-04T21:19:17.952Z,6.53
2023-01-04T21:21:50.776Z,6.90
2023-01-04T21:24:25.737Z,6.57
2023-01-04T21:27:15.900Z,6.47
2023-01-04T21:29:48.449Z,6.60
2023-01-04T21:32:21.262Z,6.50
2023-01-04T21:34:56.688Z,6.70
2023-01-04T21:37:29.889Z,8.05
2023-01-04T21:40:02.416Z,5.78
2023-01-04T21:42:35.492Z,7.30
2023-01-04T21:45:08.366Z,7.18
2023-01-04T21:47:41.279Z,7.97
2023-01-04T21:50:17.199Z,7.70
2023-01-04T21:52:50.893Z,6.95
2023-01-04T21:55:23.443Z,7.55
2023-01-04T21:57:56.216Z,7.18
2023-01-04T22:00:28.684Z,7.70
2023-01-04T22:03:01.579Z,6.63
2023-01-04T22:05:34.071Z,7.07
2023-01-04T22:08:06.859Z,7.82
2023-01-04T22:10:39.421Z,7.55
2023-01-04T22:13:12.202Z,6.95
2023-01-04T22:15:44.700Z,7.63
2023-01-04T22:18:18.272Z,8.40
2023-01-04T22:20:50.934Z,8.68
2023-01-04T22:23:23.672Z,8.32
2023-01-04T22:25:56.991Z,8.48
2023-01-04T22:28:36.280Z,9.68
2023-01-04T22:31:12.141Z,9.00
2023-01-04T22:33:45.044Z,8.35
2023-01-04T22:36:22.743Z,8.68
2023-01-04T22:38:57.213Z,9.05
2023-01-04T22:41:29.791Z,7.82
2023-01-04T22:44:05.377Z,7.60
2023-01-04T22:46:37.909Z,7.15
2023-01-04T22:49:10.970Z,7.75
2023-01-04T22:51:43.515Z,7.60
2023-01-04T22:54:16.271Z,7.68
2023-01-04T22:56:48.740Z,8.07
2023-01-04T22:59:22.943Z,6.80
2023-01-04T23:01:55.446Z,7.70
2023-01-04T23:04:28.255Z,8.10
2023-01-04T23:07:00.766Z,7.85
2023-01-04T23:09:33.679Z,8.07
2023-01-04T23:12:06.453Z,7.40
2023-01-04T23:14:39.217Z,7.97
2023-01-04T23:17:11.729Z,8.75
2023-01-04T23:19:44.442Z,7.72
2023-01-04T23:22:16.874Z,8.40
2023-01-04T23:24:49.787Z,6.95
2023-01-04T23:27:22.305Z,7.72
2023-01-04T23:29:55.058Z,7.10
2023-01-04T23:32:27.601Z,4.82
2023-01-04T23:35:00.695Z,7.47
2023-01-04T23:37:33.312Z,6.68
2023-01-04T23:40:06.485Z,6.75
2023-01-04T23:42:39.877Z,5.60
2023-01-04T23:45:12.625Z,5.45
2023-01-04T23:47:47.751Z,5.72
2023-01-04T23:50:22.199Z,5.70
2023-01-04T23:52:54.695Z,6.30
2023-01-04T23:55:27.434Z,5.25
2023-01-04T23:57:59.903Z,5.80
